createdAt,value
2017-12-23T00:02:11.700Z,14.60
2017-12-23T00:04:38.088Z,13.90
2017-12-23T00:07:04.473Z,14.80
2017-12-23T00:09:30.876Z,14.50
2017-12-23T00:11:57.254Z,13.60
2017-12-23T00:14:23.784Z,13.07
2017-12-23T00:16:50.164Z,15.60
2017-12-23T00:19:17.277Z,15.13
2017-12-23T00:21:44.423Z,15.23
2017-12-23T00:24:10.806Z,13.47
2017-12-23T00:26:37.212Z,14.33
2017-12-23T00:29:04.339Z,14.60
2017-12-23T00:31:32.226Z,14.37
2017-12-23T00:33:59.356Z,14.10
2017-12-23T00:36:25.738Z,15.70
2017-12-23T00:38:52.112Z,16.23
2017-12-23T00:41:18.474Z,15.93
2017-12-23T00:43:46.340Z,16.37
2017-12-23T00:46:14.199Z,16.80
2017-12-23T00:48:40.575Z,14.70
2017-12-23T00:51:06.943Z,14.40
2017-12-23T00:53:33.306Z,14.10
2017-12-23T00:56:00.412Z,14.63
2017-12-23T00:58:26.872Z,16.50
2017-12-23T01:00:54.103Z,16.23
2017-12-23T01:03:20.505Z,14.33
2017-12-23T01:05:46.870Z,15.40
2017-12-23T01:08:13.255Z,14.90
2017-12-23T01:10:40.388Z,14.93
2017-12-23T01:13:07.530Z,14.40
2017-12-23T01:15:33.948Z,17.60
2017-12-23T01:18:00.315Z,16.10
2017-12-23T01:20:27.436Z,15.50
2017-12-23T01:22:53.847Z,15.80
2017-12-23T01:25:20.368Z,15.77
2017-12-23T01:27:46.794Z,15.50
2017-12-23T01:30:13.246Z,16.93
2017-12-23T01:32:39.640Z,16.10
2017-12-23T01:35:06.771Z,15.27
2017-12-23T01:37:33.145Z,17.30
2017-12-23T01:39:59.512Z,16.53
2017-12-23T01:42:25.902Z,16.90
2017-12-23T01:44:53.049Z,15.43
2017-12-23T01:47:19.419Z,14.90
2017-12-23T01:49:45.787Z,14.83
2017-12-23T01:52:12.185Z,16.33
2017-12-23T01:54:38.575Z,14.70
2017-12-23T01:57:05.698Z,15.07
2017-12-23T01:59:32.088Z,15.00
2017-12-23T02:01:58.486Z,14.67
2017-12-23T02:04:39.434Z,16.27
2017-12-23T02:07:05.823Z,15.33
2017-12-23T02:09:45.051Z,13.70
2017-12-23T02:12:11.597Z,15.23
2017-12-23T02:14:38.023Z,13.90
2017-12-23T02:17:04.426Z,15.37
2017-12-23T02:19:31.581Z,14.70
2017-12-23T02:21:58.693Z,14.07
2017-12-23T02:24:25.146Z,13.93
2017-12-23T02:26:52.281Z,13.07
2017-12-23T02:29:18.668Z,14.90
2017-12-23T02:31:45.046Z,13.67
2017-12-23T02:34:11.438Z,14.00
2017-12-23T02:36:37.818Z,13.83
2017-12-23T02:39:04.246Z,15.47
2017-12-23T02:41:30.684Z,15.40
2017-12-23T02:43:57.857Z,14.07
2017-12-23T02:46:25.008Z,14.97
2017-12-23T02:48:52.135Z,12.70
2017-12-23T02:51:18.515Z,14.77
2017-12-23T02:53:44.902Z,14.40
2017-12-23T02:56:12.043Z,14.00
2017-12-23T02:58:38.428Z,14.00
2017-12-23T03:01:04.795Z,15.67
2017-12-23T03:03:31.231Z,13.73
2017-12-23T03:05:57.631Z,13.73
2017-12-23T03:08:24.007Z,13.53
2017-12-23T03:10:50.376Z,15.10
2017-12-23T03:13:16.750Z,14.87
2017-12-23T03:15:43.130Z,14.00
2017-12-23T03:18:09.502Z,13.70
2017-12-23T03:20:35.926Z,14.60
2017-12-23T03:23:02.333Z,14.33
2017-12-23T03:25:28.708Z,14.80
2017-12-23T03:27:55.075Z,13.90
2017-12-23T03:30:22.282Z,13.70
2017-12-23T03:32:48.668Z,12.10
2017-12-23T03:35:15.857Z,13.70
2017-12-23T03:37:42.936Z,14.23
2017-12-23T03:40:09.324Z,13.30
2017-12-23T03:42:35.711Z,13.53
2017-12-23T03:45:02.157Z,13.30
2017-12-23T03:47:29.285Z,13.80
2017-12-23T03:49:55.685Z,14.20
2017-12-23T03:52:22.070Z,13.70
2017-12-23T03:54:49.176Z,13.37
2017-12-23T03:57:15.552Z,14.20
2017-12-23T03:59:42.668Z,13.37
2017-12-23T04:02:09.043Z,13.53
2017-12-23T04:04:35.427Z,12.90
2017-12-23T04:07:01.805Z,14.43
2017-12-23T04:09:28.195Z,14.00
2017-12-23T04:11:56.043Z,13.70
2017-12-23T04:14:22.424Z,12.30
2017-12-23T04:16:49.543Z,13.23
2017-12-23T04:19:15.927Z,12.00
2017-12-23T04:21:42.342Z,10.70
2017-12-23T04:24:08.718Z,12.20
2017-12-23T04:26:35.127Z,13.07
2017-12-23T04:29:01.563Z,12.77
2017-12-23T04:31:27.997Z,12.43
2017-12-23T04:33:54.382Z,11.93
2017-12-23T04:36:21.524Z,11.83
2017-12-23T04:38:47.896Z,13.90
2017-12-23T04:41:14.282Z,13.07
2017-12-23T04:43:40.654Z,14.87
2017-12-23T04:46:07.295Z,12.60
2017-12-23T04:48:33.723Z,12.50
2017-12-23T04:51:00.147Z,12.97
2017-12-23T04:53:26.505Z,11.90
2017-12-23T04:55:52.934Z,12.10
2017-12-23T04:58:19.312Z,12.43
2017-12-23T05:00:46.422Z,11.80
2017-12-23T05:03:13.594Z,11.00
2017-12-23T05:05:39.991Z,13.23
2017-12-23T05:08:06.354Z,14.17
2017-12-23T05:10:32.750Z,12.27
2017-12-23T05:12:59.120Z,13.63
2017-12-23T05:15:26.962Z,14.20
2017-12-23T05:17:53.374Z,13.00
2017-12-23T05:20:19.754Z,14.70
2017-12-23T05:22:47.572Z,14.23
2017-12-23T05:25:14.004Z,14.37
2017-12-23T05:27:40.406Z,13.33
2017-12-23T05:30:07.655Z,16.10
2017-12-23T05:32:34.794Z,14.80
2017-12-23T05:35:01.912Z,14.13
2017-12-23T05:37:28.298Z,14.70
2017-12-23T05:39:54.704Z,14.23
2017-12-23T05:42:21.823Z,14.10
2017-12-23T05:44:48.432Z,13.43
2017-12-23T05:47:14.810Z,15.27
2017-12-23T05:49:42.662Z,13.97
2017-12-23T05:52:09.039Z,16.03
2017-12-23T05:54:35.403Z,14.77
2017-12-23T05:57:01.770Z,13.13
2017-12-23T05:59:28.895Z,14.13
2017-12-23T06:01:55.287Z,12.80
2017-12-23T06:04:21.649Z,14.27
2017-12-23T06:06:48.006Z,14.87
2017-12-23T06:09:14.379Z,13.27
2017-12-23T06:11:40.774Z,12.10
2017-12-23T06:14:07.169Z,12.67
2017-12-23T06:16:33.617Z,11.57
2017-12-23T06:18:59.996Z,13.07
2017-12-23T06:21:27.134Z,12.13
2017-12-23T06:23:54.282Z,11.73
2017-12-23T06:26:20.680Z,11.40
2017-12-23T06:28:47.070Z,11.60
2017-12-23T06:31:13.479Z,10.83
2017-12-23T06:33:40.582Z,10.73
2017-12-23T06:36:07.041Z,12.60
2017-12-23T06:38:33.422Z,13.10
2017-12-23T06:40:59.869Z,13.30
2017-12-23T06:43:26.250Z,12.63
2017-12-23T06:45:52.625Z,11.47
2017-12-23T06:48:19.042Z,10.67
2017-12-23T06:50:46.208Z,12.00
2017-12-23T06:53:12.598Z,11.77
2017-12-23T06:55:39.719Z,11.50
2017-12-23T06:58:06.141Z,13.60
2017-12-23T07:00:32.550Z,12.60
2017-12-23T07:02:58.967Z,11.37
2017-12-23T07:05:25.403Z,12.40
2017-12-23T07:07:51.814Z,11.60
2017-12-23T07:10:19.672Z,10.80
2017-12-23T07:12:46.850Z,10.43
2017-12-23T07:15:14.019Z,11.30
2017-12-23T07:17:41.307Z,10.70
2017-12-23T07:20:07.719Z,13.57
2017-12-23T07:22:34.119Z,12.00
2017-12-23T07:25:00.518Z,11.80
2017-12-23T07:27:26.893Z,12.13
2017-12-23T07:29:53.269Z,10.90
2017-12-23T07:32:19.681Z,12.13
2017-12-23T07:34:46.065Z,13.73
2017-12-23T07:37:13.198Z,11.53
2017-12-23T07:39:41.092Z,12.87
2017-12-23T07:42:07.479Z,11.80
2017-12-23T07:44:33.864Z,12.63
2017-12-23T07:47:00.218Z,11.43
2017-12-23T07:49:26.708Z,11.77
2017-12-23T07:51:53.922Z,11.57
2017-12-23T07:54:20.315Z,12.33
2017-12-23T07:56:46.689Z,10.93
2017-12-23T07:59:13.062Z,10.73
2017-12-23T08:01:40.263Z,10.60
2017-12-23T08:04:06.626Z,9.63
2017-12-23T08:06:33.035Z,10.90
2017-12-23T08:08:59.419Z,10.67
2017-12-23T08:11:25.795Z,9.53
2017-12-23T08:13:52.225Z,10.87
2017-12-23T08:16:18.614Z,11.07
2017-12-23T08:18:45.753Z,9.67
2017-12-23T08:21:12.869Z,9.43
2017-12-23T08:23:40.011Z,8.93
2017-12-23T08:26:06.613Z,10.63
2017-12-23T08:28:33.033Z,9.17
2017-12-23T08:31:00.143Z,9.67
2017-12-23T08:33:26.522Z,8.60
2017-12-23T08:35:52.914Z,8.43
2017-12-23T08:38:19.286Z,9.00
2017-12-23T08:40:46.415Z,9.30
2017-12-23T08:43:13.528Z,9.10
2017-12-23T08:45:39.958Z,9.10
2017-12-23T08:48:06.354Z,9.10
2017-12-23T08:50:32.738Z,9.13
2017-12-23T08:52:59.103Z,9.00
2017-12-23T08:55:26.221Z,8.50
2017-12-23T08:57:54.159Z,7.97
2017-12-23T09:00:20.558Z,8.17
2017-12-23T09:02:47.003Z,7.90
2017-12-23T09:05:13.391Z,7.20
2017-12-23T09:07:39.766Z,6.80
2017-12-23T09:10:06.164Z,7.07
2017-12-23T09:12:33.368Z,7.60
2017-12-23T09:14:59.766Z,6.90
2017-12-23T09:17:26.889Z,6.97
2017-12-23T09:19:54.761Z,5.77
2017-12-23T09:22:21.147Z,5.70
2017-12-23T09:24:47.547Z,5.50
2017-12-23T09:27:14.674Z,5.30
2017-12-23T09:29:41.786Z,5.57
2017-12-23T09:32:08.149Z,5.07
2017-12-23T09:34:34.582Z,4.40
2017-12-23T09:37:01.013Z,5.57
2017-12-23T09:39:28.888Z,4.60
2017-12-23T09:41:55.293Z,5.47
2017-12-23T09:44:21.684Z,4.70
2017-12-23T09:46:48.123Z,5.50
2017-12-23T09:49:14.543Z,4.70
2017-12-23T09:51:40.940Z,5.07
2017-12-23T09:54:07.351Z,4.90
2017-12-23T09:56:33.734Z,4.23
2017-12-23T09:59:00.890Z,4.80
2017-12-23T10:01:27.295Z,4.37
2017-12-23T10:03:54.680Z,3.90
2017-12-23T10:06:21.062Z,3.63
2017-12-23T10:08:47.464Z,4.33
2017-12-23T10:11:13.868Z,4.83
2017-12-23T10:13:40.272Z,3.77
2017-12-23T10:16:07.395Z,3.67
2017-12-23T10:18:33.789Z,3.27
2017-12-23T10:21:00.168Z,4.00
2017-12-23T10:23:26.559Z,3.93
2017-12-23T10:25:52.951Z,3.40
2017-12-23T10:28:20.811Z,3.10
2017-12-23T10:30:47.195Z,3.53
2017-12-23T10:33:13.583Z,3.53
2017-12-23T10:35:39.979Z,3.73
2017-12-23T10:38:06.946Z,3.47
2017-12-23T10:40:33.342Z,3.03
2017-12-23T10:42:59.727Z,3.27
2017-12-23T10:45:26.863Z,3.87
2017-12-23T10:47:53.287Z,3.50
2017-12-23T10:50:21.165Z,3.40
2017-12-23T10:52:47.587Z,2.67
2017-12-23T10:55:13.988Z,3.13
2017-12-23T10:57:40.399Z,4.10
2017-12-23T11:00:07.667Z,3.90
2017-12-23T11:02:34.067Z,3.20
2017-12-23T11:05:01.269Z,3.00
2017-12-23T11:07:27.667Z,4.17
2017-12-23T11:09:54.123Z,4.03
2017-12-23T11:12:20.507Z,3.47
2017-12-23T11:14:46.902Z,4.20
2017-12-23T11:17:13.350Z,3.07
2017-12-23T11:19:39.699Z,3.47
2017-12-23T11:22:06.818Z,2.90
2017-12-23T11:24:33.189Z,3.53
2017-12-23T11:27:00.301Z,3.53
2017-12-23T11:29:26.680Z,2.73
2017-12-23T11:31:53.805Z,3.27
2017-12-23T11:34:21.684Z,3.30
2017-12-23T11:36:48.811Z,3.47
2017-12-23T11:39:15.200Z,3.43
2017-12-23T11:41:41.579Z,3.70
2017-12-23T11:44:08.696Z,3.23
2017-12-23T11:46:35.828Z,3.30
2017-12-23T11:49:02.222Z,2.77
2017-12-23T11:51:28.603Z,3.07
2017-12-23T11:53:54.999Z,2.97
2017-12-23T11:56:22.123Z,3.10
2017-12-23T11:58:50.028Z,3.30
2017-12-23T12:01:16.409Z,3.10
2017-12-23T12:03:42.808Z,3.57
2017-12-23T12:06:09.349Z,3.80
2017-12-23T12:08:35.891Z,3.97
2017-12-23T12:11:02.310Z,4.07
2017-12-23T12:13:28.984Z,3.73
2017-12-23T12:15:55.353Z,4.23
2017-12-23T12:18:22.480Z,4.30
2017-12-23T12:20:49.656Z,3.70
2017-12-23T12:23:16.065Z,3.20
2017-12-23T12:25:42.455Z,4.50
2017-12-23T12:28:08.870Z,8.50
2017-12-23T12:30:35.273Z,3.53
2017-12-23T12:33:02.410Z,9.03
2017-12-23T12:35:28.803Z,4.80
2017-12-23T12:37:55.214Z,4.40
2017-12-23T12:40:21.608Z,4.63
2017-12-23T12:42:48.756Z,4.83
2017-12-23T12:45:15.984Z,5.07
2017-12-23T12:47:42.343Z,4.20
2017-12-23T12:50:09.485Z,4.47
2017-12-23T12:52:35.889Z,5.00
2017-12-23T12:55:02.328Z,5.27
2017-12-23T12:57:28.768Z,5.53
2017-12-23T12:59:55.317Z,5.03
2017-12-23T13:02:22.467Z,5.63
2017-12-23T13:25:52.205Z,6.30
2017-12-23T13:28:20.165Z,6.40
2017-12-23T13:30:46.655Z,6.00
2017-12-23T13:33:13.100Z,7.13
2017-12-23T13:35:39.548Z,6.10
2017-12-23T13:38:05.943Z,6.13
2017-12-23T13:40:33.088Z,6.30
2017-12-23T13:43:00.234Z,6.93
2017-12-23T13:45:26.614Z,6.63
2017-12-23T13:47:52.980Z,6.70
2017-12-23T13:50:19.445Z,5.77
2017-12-23T13:52:46.606Z,6.17
2017-12-23T13:55:14.569Z,6.47
2017-12-23T13:57:40.948Z,6.27
2017-12-23T14:00:07.351Z,6.57
2017-12-23T14:02:33.766Z,7.00
2017-12-23T14:05:00.511Z,7.43
2017-12-23T14:07:27.844Z,8.47
2017-12-23T14:09:54.979Z,7.33
2017-12-23T14:12:24.220Z,7.10
2017-12-23T14:14:50.622Z,7.63
2017-12-23T14:17:17.776Z,7.13
2017-12-23T14:19:45.860Z,10.13
2017-12-23T14:22:16.627Z,9.47
2017-12-23T14:24:43.131Z,8.70
2017-12-23T14:27:13.367Z,8.00
2017-12-23T14:29:40.047Z,7.30
2017-12-23T14:32:07.834Z,7.20
2017-12-23T14:34:34.983Z,7.93
2017-12-23T14:37:02.603Z,6.87
2017-12-23T14:39:30.963Z,6.43
2017-12-23T14:41:58.740Z,6.90
2017-12-23T14:44:25.770Z,6.27
2017-12-23T14:46:53.071Z,6.73
2017-12-23T14:49:20.969Z,6.10
2017-12-23T14:51:51.163Z,6.23
2017-12-23T14:54:18.621Z,5.70
2017-12-23T14:56:46.647Z,5.90
2017-12-23T14:59:13.131Z,6.07
2017-12-23T15:01:40.166Z,6.03
2017-12-23T15:04:07.334Z,5.60
2017-12-23T15:06:34.463Z,6.60
2017-12-23T15:09:01.758Z,6.90
2017-12-23T15:11:28.531Z,6.60
2017-12-23T15:13:55.338Z,6.60
2017-12-23T15:16:21.741Z,6.40
2017-12-23T15:18:50.232Z,6.70
2017-12-23T15:21:17.373Z,6.87
2017-12-23T15:23:43.753Z,6.23
2017-12-23T15:26:10.163Z,5.90
2017-12-23T15:28:37.290Z,6.97
2017-12-23T15:31:06.132Z,7.30
2017-12-23T15:33:32.567Z,6.07
2017-12-23T15:35:58.946Z,6.77
2017-12-23T15:38:25.327Z,6.70
2017-12-23T15:40:51.698Z,7.50
2017-12-23T15:43:19.643Z,7.47
2017-12-23T15:45:46.095Z,8.70
2017-12-23T15:48:14.580Z,7.30
2017-12-23T15:50:41.037Z,9.30
2017-12-23T15:53:08.187Z,8.40
2017-12-23T15:55:35.312Z,10.17
2017-12-23T15:58:02.466Z,10.50
2017-12-23T16:00:29.600Z,8.43
2017-12-23T16:02:56.010Z,8.73
2017-12-23T16:05:22.380Z,7.80
2017-12-23T16:07:48.737Z,9.30
2017-12-23T16:10:15.910Z,8.93
2017-12-23T16:12:42.368Z,8.07
2017-12-23T16:15:09.533Z,6.80
2017-12-23T16:17:36.705Z,7.03
2017-12-23T16:20:03.869Z,7.70
2017-12-23T16:22:30.243Z,7.50
2017-12-23T16:24:56.650Z,7.30
2017-12-23T16:27:23.020Z,6.70
2017-12-23T16:29:49.402Z,7.77
2017-12-23T16:32:16.553Z,6.70
2017-12-23T16:34:42.980Z,5.83
2017-12-23T16:37:10.180Z,5.90
2017-12-23T16:39:36.593Z,6.67
2017-12-23T16:42:03.014Z,6.27
2017-12-23T16:44:29.543Z,6.07
2017-12-23T16:46:56.021Z,8.90
2017-12-23T16:49:23.128Z,6.10
2017-12-23T16:51:50.537Z,8.20
2017-12-23T16:54:18.973Z,7.10
2017-12-23T16:56:46.254Z,7.10
2017-12-23T16:59:13.540Z,7.30
2017-12-23T17:01:40.851Z,5.83
2017-12-23T17:04:07.236Z,6.40
2017-12-23T17:06:34.363Z,5.17
2017-12-23T17:09:00.759Z,6.50
2017-12-23T17:11:27.194Z,6.27
2017-12-23T17:13:53.582Z,4.70
2017-12-23T17:16:20.714Z,6.43
2017-12-23T17:18:48.584Z,4.60
2017-12-23T17:21:14.998Z,4.67
2017-12-23T17:23:41.434Z,4.80
2017-12-23T17:26:07.771Z,4.10
2017-12-23T17:28:47.271Z,4.50
2017-12-23T17:31:13.692Z,4.30
2017-12-23T17:33:40.115Z,3.93
2017-12-23T17:36:06.545Z,4.30
2017-12-23T17:38:32.986Z,4.00
2017-12-23T17:40:59.419Z,5.03
2017-12-23T17:43:25.851Z,4.20
2017-12-23T17:45:52.342Z,4.20
2017-12-23T17:48:19.490Z,4.63
2017-12-23T17:50:45.901Z,4.10
2017-12-23T17:53:12.397Z,4.60
2017-12-23T17:55:38.822Z,4.67
2017-12-23T17:58:06.000Z,4.50
2017-12-23T18:00:33.092Z,4.27
2017-12-23T18:03:01.097Z,5.43
2017-12-23T18:05:27.481Z,4.43
2017-12-23T18:07:53.874Z,4.50
2017-12-23T18:10:20.258Z,3.90
2017-12-23T18:12:46.664Z,4.20
2017-12-23T18:15:13.074Z,3.87
2017-12-23T18:17:39.451Z,3.70
2017-12-23T18:20:06.739Z,3.50
2017-12-23T18:22:33.903Z,3.63
2017-12-23T18:25:00.302Z,4.00
2017-12-23T18:27:27.436Z,4.20
2017-12-23T18:29:53.836Z,3.83
2017-12-23T18:32:20.214Z,3.73
2017-12-23T18:34:47.352Z,4.03
2017-12-23T18:37:14.499Z,3.90
2017-12-23T18:39:40.913Z,3.80
2017-12-23T18:42:07.351Z,3.50
2017-12-23T18:44:35.301Z,3.90
2017-12-23T18:47:01.681Z,3.47
2017-12-23T18:49:28.858Z,4.23
2017-12-23T18:51:56.023Z,4.00
2017-12-23T18:54:22.425Z,4.10
2017-12-23T18:56:48.815Z,3.30
2017-12-23T18:59:15.215Z,4.00
2017-12-23T19:01:41.657Z,4.77
2017-12-23T19:04:08.039Z,4.03
2017-12-23T19:06:35.163Z,5.27
2017-12-23T19:09:02.499Z,4.90
2017-12-23T19:11:29.623Z,4.23
2017-12-23T19:13:56.032Z,4.67
2017-12-23T19:16:34.830Z,5.07
2017-12-23T19:19:02.746Z,5.00
2017-12-23T19:21:29.131Z,5.13
2017-12-23T19:23:55.540Z,5.00
2017-12-23T19:26:21.959Z,4.90
2017-12-23T19:28:48.351Z,5.03
2017-12-23T19:31:15.467Z,5.40
2017-12-23T19:33:43.373Z,4.80
2017-12-23T19:36:10.504Z,4.80
2017-12-23T19:38:38.347Z,4.57
2017-12-23T19:41:04.738Z,5.80
2017-12-23T19:43:31.120Z,4.83
2017-12-23T19:45:57.495Z,5.80
2017-12-23T19:48:23.907Z,4.60
2017-12-23T19:50:51.019Z,5.10
2017-12-23T19:53:18.462Z,5.60
2017-12-23T19:55:44.901Z,5.90
2017-12-23T19:58:11.316Z,5.60
2017-12-23T20:00:37.699Z,5.17
2017-12-23T20:03:04.851Z,4.97
2017-12-23T20:05:31.981Z,5.07
2017-12-23T20:08:00.362Z,4.90
2017-12-23T20:10:28.236Z,5.73
2017-12-23T20:12:55.359Z,5.83
2017-12-23T20:15:21.753Z,5.40
2017-12-23T20:17:48.940Z,6.20
2017-12-23T20:20:15.361Z,6.43
2017-12-23T20:22:41.726Z,5.80
2017-12-23T20:25:08.098Z,5.97
2017-12-23T20:27:35.215Z,5.27
2017-12-23T20:30:03.128Z,6.37
2017-12-23T20:32:29.498Z,5.20
2017-12-23T20:34:55.938Z,5.57
2017-12-23T20:37:23.806Z,5.73
2017-12-23T20:39:50.193Z,6.17
2017-12-23T20:42:16.584Z,6.63
2017-12-23T20:44:43.725Z,7.33
2017-12-23T20:47:11.595Z,5.33
2017-12-23T20:49:38.056Z,5.03
2017-12-23T20:52:04.468Z,6.63
2017-12-23T20:54:31.604Z,6.33
2017-12-23T20:56:58.737Z,5.63
2017-12-23T20:59:25.124Z,5.70
2017-12-23T21:01:51.521Z,6.03
2017-12-23T21:04:17.958Z,5.60
2017-12-23T21:06:44.319Z,5.77
2017-12-23T21:09:10.732Z,6.93
2017-12-23T21:11:37.870Z,6.80
2017-12-23T21:14:04.255Z,5.93
2017-12-23T21:16:31.403Z,6.73
2017-12-23T21:18:57.814Z,6.77
2017-12-23T21:21:24.204Z,6.57
2017-12-23T21:23:52.215Z,6.03
2017-12-23T21:26:18.592Z,6.80
2017-12-23T21:28:45.047Z,7.10
2017-12-23T21:31:11.435Z,6.40
2017-12-23T21:33:37.809Z,6.63
2017-12-23T21:36:04.963Z,7.37
2017-12-23T21:38:31.343Z,6.47
2017-12-23T21:40:57.727Z,6.70
2017-12-23T21:43:24.827Z,6.37
2017-12-23T21:45:51.226Z,5.73
2017-12-23T21:48:18.375Z,6.90
2017-12-23T21:50:45.503Z,7.27
2017-12-23T21:53:12.632Z,5.90
2017-12-23T21:55:39.017Z,6.93
2017-12-23T21:58:05.859Z,7.03
2017-12-23T22:00:32.239Z,5.83
2017-12-23T22:02:59.583Z,7.33
2017-12-23T22:05:25.943Z,6.47
2017-12-23T22:07:52.319Z,7.20
2017-12-23T22:10:18.720Z,7.27
2017-12-23T22:12:45.844Z,7.63
2017-12-23T22:15:12.253Z,6.63
2017-12-23T22:17:38.643Z,6.90
2017-12-23T22:20:05.771Z,7.00
2017-12-23T22:22:32.163Z,6.60
2017-12-23T22:24:58.562Z,6.97
2017-12-23T22:27:25.715Z,8.03
2017-12-23T22:29:52.112Z,7.50
2017-12-23T22:32:19.432Z,6.63
2017-12-23T22:34:45.871Z,7.37
2017-12-23T22:37:12.270Z,6.93
2017-12-23T22:39:38.656Z,7.23
2017-12-23T22:42:05.053Z,5.97
2017-12-23T22:44:31.435Z,6.00
2017-12-23T22:46:59.306Z,6.33
2017-12-23T22:49:25.708Z,6.47
2017-12-23T22:51:52.164Z,5.80
2017-12-23T22:54:18.555Z,6.80
2017-12-23T22:56:44.996Z,5.83
2017-12-23T22:59:11.376Z,6.20
2017-12-23T23:01:38.498Z,5.17
2017-12-23T23:04:04.890Z,6.07
2017-12-23T23:06:31.275Z,5.90
2017-12-23T23:08:57.675Z,5.43
2017-12-23T23:11:24.069Z,5.70
2017-12-23T23:13:51.241Z,5.60
2017-12-23T23:16:17.646Z,5.50
2017-12-23T23:18:44.767Z,5.50
2017-12-23T23:21:11.142Z,5.33
2017-12-23T23:23:37.546Z,6.57
2017-12-23T23:26:04.671Z,5.90
2017-12-23T23:28:32.592Z,5.87
2017-12-23T23:30:58.978Z,5.87
2017-12-23T23:33:25.375Z,5.30
2017-12-23T23:35:51.828Z,5.13
2017-12-23T23:38:18.240Z,5.90
2017-12-23T23:40:44.644Z,5.03
2017-12-23T23:43:11.099Z,5.20
2017-12-23T23:45:38.224Z,4.63
2017-12-23T23:48:05.347Z,4.97
2017-12-23T23:50:33.193Z,5.30
2017-12-23T23:52:59.568Z,6.40
2017-12-23T23:55:26.669Z,4.47
2017-12-23T23:57:53.054Z,5.00
